sensor_id;sensor_type;location;lat;lon;timestamp;pressure;altitude;pressure_sealevel;temperature;humidity
62680;BME280;68213;40.528;44.712;2023-06-26T00:00:38;80462.34;;;11.51;74.22
62680;BME280;68213;40.528;44.712;2023-06-26T00:01:39;80457.75;;;11.52;74.23
62680;BME280;68213;40.528;44.712;2023-06-26T00:02:40;80463.03;;;11.52;74.55
62680;BME280;68213;40.528;44.712;2023-06-26T00:03:41;80465.00;;;11.51;74.89
62680;BME280;68213;40.528;44.712;2023-06-26T00:04:43;80467.03;;;11.53;74.66
62680;BME280;68213;40.528;44.712;2023-06-26T00:05:44;80459.84;;;11.53;74.77
62680;BME280;68213;40.528;44.712;2023-06-26T00:06:44;80467.72;;;11.53;74.90
62680;BME280;68213;40.528;44.712;2023-06-26T00:07:45;80458.06;;;11.44;74.78
62680;BME280;68213;40.528;44.712;2023-06-26T00:08:46;80466.38;;;11.52;75.33
62680;BME280;68213;40.528;44.712;2023-06-26T00:09:48;80465.09;;;11.53;75.38
62680;BME280;68213;40.528;44.712;2023-06-26T00:10:49;80463.72;;;11.52;75.38
62680;BME280;68213;40.528;44.712;2023-06-26T00:11:52;80453.88;;;11.39;75.45
62680;BME280;68213;40.528;44.712;2023-06-26T00:12:53;80461.59;;;11.49;75.53
62680;BME280;68213;40.528;44.712;2023-06-26T00:13:54;80464.22;;;11.49;75.74
62680;BME280;68213;40.528;44.712;2023-06-26T00:14:55;80456.03;;;11.42;75.94
62680;BME280;68213;40.528;44.712;2023-06-26T00:15:56;80453.06;;;11.36;76.02
62680;BME280;68213;40.528;44.712;2023-06-26T00:16:56;80465.84;;;11.42;76.15
62680;BME280;68213;40.528;44.712;2023-06-26T00:17:59;80462.63;;;11.43;76.33
62680;BME280;68213;40.528;44.712;2023-06-26T00:19:00;80461.28;;;11.42;76.36
62680;BME280;68213;40.528;44.712;2023-06-26T00:20:00;80459.91;;;11.41;76.60
62680;BME280;68213;40.528;44.712;2023-06-26T00:21:05;80459.03;;;11.37;76.93
62680;BME280;68213;40.528;44.712;2023-06-26T00:22:08;80468.31;;;11.38;77.00
62680;BME280;68213;40.528;44.712;2023-06-26T00:23:13;80465.75;;;11.40;77.69
62680;BME280;68213;40.528;44.712;2023-06-26T00:24:17;80458.44;;;11.38;77.67
62680;BME280;68213;40.528;44.712;2023-06-26T00:25:18;80463.91;;;11.42;77.39
62680;BME280;68213;40.528;44.712;2023-06-26T00:26:19;80463.13;;;11.40;77.34
62680;BME280;68213;40.528;44.712;2023-06-26T00:27:20;80464.09;;;11.33;77.71
62680;BME280;68213;40.528;44.712;2023-06-26T00:28:21;80464.19;;;11.35;78.05
62680;BME280;68213;40.528;44.712;2023-06-26T00:29:22;80470.22;;;11.37;77.93
62680;BME280;68213;40.528;44.712;2023-06-26T00:30:22;80465.66;;;11.38;78.33
62680;BME280;68213;40.528;44.712;2023-06-26T00:31:23;80467.59;;;11.37;78.14
62680;BME280;68213;40.528;44.712;2023-06-26T00:32:24;80467.59;;;11.37;78.16
62680;BME280;68213;40.528;44.712;2023-06-26T00:33:24;80468.19;;;11.36;78.42
62680;BME280;68213;40.528;44.712;2023-06-26T00:34:25;80474.63;;;11.33;78.92
62680;BME280;68213;40.528;44.712;2023-06-26T00:35:26;80460.66;;;11.30;79.59
62680;BME280;68213;40.528;44.712;2023-06-26T00:36:27;80464.97;;;11.37;79.78
62680;BME280;68213;40.528;44.712;2023-06-26T00:37:27;80472.31;;;11.39;79.66
62680;BME280;68213;40.528;44.712;2023-06-26T00:38:28;80461.78;;;11.39;79.77
62680;BME280;68213;40.528;44.712;2023-06-26T00:39:29;80463.31;;;11.44;79.45
62680;BME280;68213;40.528;44.712;2023-06-26T00:40:30;80471.22;;;11.44;79.33
62680;BME280;68213;40.528;44.712;2023-06-26T00:41:30;80469.25;;;11.45;78.94
62680;BME280;68213;40.528;44.712;2023-06-26T00:42:31;80469.38;;;11.47;79.08
62680;BME280;68213;40.528;44.712;2023-06-26T00:43:32;80470.84;;;11.50;78.79
62680;BME280;68213;40.528;44.712;2023-06-26T00:44:33;80467.53;;;11.49;78.72
62680;BME280;68213;40.528;44.712;2023-06-26T00:45:33;80469.56;;;11.51;78.72
62680;BME280;68213;40.528;44.712;2023-06-26T00:46:34;80469.66;;;11.53;79.29
62680;BME280;68213;40.528;44.712;2023-06-26T00:47:38;80468.59;;;11.58;79.03
62680;BME280;68213;40.528;44.712;2023-06-26T00:48:41;80477.38;;;11.63;79.02
62680;BME280;68213;40.528;44.712;2023-06-26T00:49:43;80467.72;;;11.67;79.04
62680;BME280;68213;40.528;44.712;2023-06-26T00:50:44;80469.28;;;11.72;78.94
62680;BME280;68213;40.528;44.712;2023-06-26T00:51:46;80472.13;;;11.77;78.70
62680;BME280;68213;40.528;44.712;2023-06-26T00:52:47;80465.75;;;11.82;78.20
62680;BME280;68213;40.528;44.712;2023-06-26T00:53:48;80459.53;;;11.89;78.16
62680;BME280;68213;40.528;44.712;2023-06-26T00:54:49;80450.44;;;11.78;77.77
62680;BME280;68213;40.528;44.712;2023-06-26T00:55:51;80463.13;;;11.96;77.99
62680;BME280;68213;40.528;44.712;2023-06-26T00:56:52;80462.06;;;12.01;77.76
62680;BME280;68213;40.528;44.712;2023-06-26T00:57:54;80464.13;;;12.02;77.71
62680;BME280;68213;40.528;44.712;2023-06-26T00:58:55;80466.19;;;12.04;77.74
62680;BME280;68213;40.528;44.712;2023-06-26T00:59:56;80456.41;;;12.06;77.64
62680;BME280;68213;40.528;44.712;2023-06-26T01:00:57;80464.41;;;12.09;77.39
62680;BME280;68213;40.528;44.712;2023-06-26T01:01:58;80440.69;;;11.95;77.20
62680;BME280;68213;40.528;44.712;2023-06-26T01:02:59;80465.09;;;12.09;77.32
62680;BME280;68213;40.528;44.712;2023-06-26T01:04:00;80473.88;;;12.14;77.67
62680;BME280;68213;40.528;44.712;2023-06-26T01:05:01;80464.09;;;12.16;78.02
62680;BME280;68213;40.528;44.712;2023-06-26T01:06:04;80464.81;;;12.17;77.79
62680;BME280;68213;40.528;44.712;2023-06-26T01:07:05;80463.00;;;12.21;77.93
62680;BME280;68213;40.528;44.712;2023-06-26T01:08:08;80461.94;;;12.27;77.71
62680;BME280;68213;40.528;44.712;2023-06-26T01:09:09;80459.38;;;12.29;77.77
62680;BME280;68213;40.528;44.712;2023-06-26T01:10:10;80454.91;;;12.31;77.20
62680;BME280;68213;40.528;44.712;2023-06-26T01:11:12;80449.34;;;12.25;77.01
62680;BME280;68213;40.528;44.712;2023-06-26T01:12:14;80461.63;;;12.34;77.01
62680;BME280;68213;40.528;44.712;2023-06-26T01:13:15;80452.44;;;12.35;77.09
62680;BME280;68213;40.528;44.712;2023-06-26T01:14:16;80441.25;;;12.21;76.88
62680;BME280;68213;40.528;44.712;2023-06-26T01:15:17;80449.53;;;12.29;76.87
62680;BME280;68213;40.528;44.712;2023-06-26T01:16:18;80458.63;;;12.26;77.18
62680;BME280;68213;40.528;44.712;2023-06-26T01:17:20;80457.66;;;12.19;77.72
62680;BME280;68213;40.528;44.712;2023-06-26T01:18:21;80458.25;;;12.18;78.12
62680;BME280;68213;40.528;44.712;2023-06-26T01:19:27;80447.81;;;12.20;78.23
62680;BME280;68213;40.528;44.712;2023-06-26T01:20:35;80440.00;;;12.08;78.05
62680;BME280;68213;40.528;44.712;2023-06-26T01:21:42;80444.56;;;12.21;78.15
62680;BME280;68213;40.528;44.712;2023-06-26T01:23:17;80445.94;;;12.22;78.17
62680;BME280;68213;40.528;44.712;2023-06-26T01:24:19;80452.47;;;12.21;78.33
62680;BME280;68213;40.528;44.712;2023-06-26T01:25:56;80449.34;;;12.25;78.56
62680;BME280;68213;40.528;44.712;2023-06-26T01:27:01;80445.44;;;12.26;78.46
62680;BME280;68213;40.528;44.712;2023-06-26T01:28:05;80447.50;;;12.28;78.32
62680;BME280;68213;40.528;44.712;2023-06-26T01:29:07;80451.47;;;12.29;78.32
62680;BME280;68213;40.528;44.712;2023-06-26T01:30:11;80446.91;;;12.29;78.31
62680;BME280;68213;40.528;44.712;2023-06-26T01:31:13;80442.31;;;12.30;78.31
62680;BME280;68213;40.528;44.712;2023-06-26T01:32:14;80444.28;;;12.29;78.28
62680;BME280;68213;40.528;44.712;2023-06-26T01:33:15;80452.19;;;12.29;78.06
62680;BME280;68213;40.528;44.712;2023-06-26T01:34:17;80444.16;;;12.27;78.22
62680;BME280;68213;40.528;44.712;2023-06-26T01:35:18;80441.53;;;12.27;78.38
62680;BME280;68213;40.528;44.712;2023-06-26T01:36:19;80437.47;;;12.24;78.43
62680;BME280;68213;40.528;44.712;2023-06-26T01:37:20;80444.50;;;12.19;78.95
62680;BME280;68213;40.528;44.712;2023-06-26T01:38:21;80446.44;;;12.19;79.07
62680;BME280;68213;40.528;44.712;2023-06-26T01:39:24;80433.47;;;12.09;78.94
62680;BME280;68213;40.528;44.712;2023-06-26T01:40:25;80445.00;;;12.16;78.99
62680;BME280;68213;40.528;44.712;2023-06-26T01:41:26;80426.66;;;12.04;79.50
62680;BME280;68213;40.528;44.712;2023-06-26T01:42:27;80438.75;;;12.09;79.46
62680;BME280;68213;40.528;44.712;2023-06-26T01:44:55;80445.88;;;12.06;79.60
62680;BME280;68213;40.528;44.712;2023-06-26T01:46:04;80436.31;;;11.99;79.83
62680;BME280;68213;40.528;44.712;2023-06-26T01:47:06;80439.72;;;12.02;80.00
62680;BME280;68213;40.528;44.712;2023-06-26T01:48:09;80438.19;;;11.97;80.23
62680;BME280;68213;40.528;44.712;2023-06-26T01:50:05;80434.75;;;11.94;80.12
62680;BME280;68213;40.528;44.712;2023-06-26T01:50:39;80434.53;;;11.90;80.53
62680;BME280;68213;40.528;44.712;2023-06-26T01:51:48;80439.72;;;11.88;80.66
62680;BME280;68213;40.528;44.712;2023-06-26T01:53:04;80437.66;;;11.86;80.73
62680;BME280;68213;40.528;44.712;2023-06-26T01:54:10;80440.19;;;11.84;80.90
62680;BME280;68213;40.528;44.712;2023-06-26T01:56:22;80436.72;;;11.80;81.96
62680;BME280;68213;40.528;44.712;2023-06-26T01:57:25;80436.91;;;11.84;81.48
62680;BME280;68213;40.528;44.712;2023-06-26T01:58:27;80429.09;;;11.86;81.96
62680;BME280;68213;40.528;44.712;2023-06-26T01:59:31;80431.03;;;11.85;81.62
62680;BME280;68213;40.528;44.712;2023-06-26T02:00:33;80430.25;;;11.83;81.38
62680;BME280;68213;40.528;44.712;2023-06-26T02:01:34;80437.78;;;11.88;81.71
62680;BME280;68213;40.528;44.712;2023-06-26T02:02:35;80435.25;;;11.90;81.63
62680;BME280;68213;40.528;44.712;2023-06-26T02:03:36;80435.44;;;11.81;81.72
62680;BME280;68213;40.528;44.712;2023-06-26T02:04:38;80432.63;;;11.77;82.11
62680;BME280;68213;40.528;44.712;2023-06-26T02:05:39;80431.53;;;11.82;81.98
62680;BME280;68213;40.528;44.712;2023-06-26T02:06:40;80428.50;;;11.87;81.80
62680;BME280;68213;40.528;44.712;2023-06-26T02:07:41;80428.13;;;11.93;81.42
62680;BME280;68213;40.528;44.712;2023-06-26T02:08:42;80428.88;;;11.96;81.40
62680;BME280;68213;40.528;44.712;2023-06-26T02:09:42;80431.06;;;11.99;81.16
62680;BME280;68213;40.528;44.712;2023-06-26T02:10:44;80429.19;;;12.02;81.16
62680;BME280;68213;40.528;44.712;2023-06-26T02:11:44;80432.59;;;12.04;81.11
62680;BME280;68213;40.528;44.712;2023-06-26T02:12:45;80428.03;;;12.05;80.91
62680;BME280;68213;40.528;44.712;2023-06-26T02:13:46;80427.53;;;12.09;80.61
62680;BME280;68213;40.528;44.712;2023-06-26T02:14:46;80425.66;;;12.11;80.53
62680;BME280;68213;40.528;44.712;2023-06-26T02:15:47;80430.44;;;12.15;80.06
62680;BME280;68213;40.528;44.712;2023-06-26T02:16:48;80430.53;;;12.17;80.00
62680;BME280;68213;40.528;44.712;2023-06-26T02:17:49;80429.34;;;12.20;79.85
62680;BME280;68213;40.528;44.712;2023-06-26T02:18:50;80399.34;;;11.97;79.99
62680;BME280;68213;40.528;44.712;2023-06-26T02:20:14;80421.97;;;11.88;80.54
62680;BME280;68213;40.528;44.712;2023-06-26T02:21:14;80430.47;;;11.87;81.70
62680;BME280;68213;40.528;44.712;2023-06-26T02:22:16;80428.41;;;11.85;81.80
62680;BME280;68213;40.528;44.712;2023-06-26T02:23:17;80425.38;;;11.91;81.42
62680;BME280;68213;40.528;44.712;2023-06-26T02:24:17;80427.06;;;11.98;80.55
62680;BME280;68213;40.528;44.712;2023-06-26T02:25:20;80425.78;;;11.99;81.10
62680;BME280;68213;40.528;44.712;2023-06-26T02:26:24;80405.19;;;11.82;80.93
62680;BME280;68213;40.528;44.712;2023-06-26T02:27:25;80424.63;;;12.02;81.05
62680;BME280;68213;40.528;44.712;2023-06-26T02:28:26;80423.44;;;12.05;81.19
62680;BME280;68213;40.528;44.712;2023-06-26T02:29:27;80426.84;;;12.08;81.22
62680;BME280;68213;40.528;44.712;2023-06-26T02:30:28;80424.31;;;12.10;81.13
62680;BME280;68213;40.528;44.712;2023-06-26T02:31:29;80421.06;;;12.12;81.17
62680;BME280;68213;40.528;44.712;2023-06-26T02:32:30;80414.84;;;12.05;81.16
62680;BME280;68213;40.528;44.712;2023-06-26T02:33:31;80423.81;;;12.14;80.46
62680;BME280;68213;40.528;44.712;2023-06-26T02:34:32;80425.19;;;12.15;80.07
62680;BME280;68213;40.528;44.712;2023-06-26T02:35:33;80417.38;;;12.17;80.64
62680;BME280;68213;40.528;44.712;2023-06-26T02:36:34;80423.31;;;12.17;81.18
62680;BME280;68213;40.528;44.712;2023-06-26T02:37:37;80419.09;;;12.26;78.66
62680;BME280;68213;40.528;44.712;2023-06-26T02:38:38;80415.38;;;12.31;79.56
62680;BME280;68213;40.528;44.712;2023-06-26T02:39:38;80415.56;;;12.35;79.54
62680;BME280;68213;40.528;44.712;2023-06-26T02:40:39;80414.56;;;12.43;79.09
62680;BME280;68213;40.528;44.712;2023-06-26T02:41:40;80415.41;;;12.47;79.26
62680;BME280;68213;40.528;44.712;2023-06-26T02:42:41;80412.38;;;12.53;78.79
62680;BME280;68213;40.528;44.712;2023-06-26T02:43:41;80417.81;;;12.57;76.83
62680;BME280;68213;40.528;44.712;2023-06-26T02:44:44;80410.19;;;12.63;75.95
62680;BME280;68213;40.528;44.712;2023-06-26T02:45:45;80415.56;;;12.65;77.11
62680;BME280;68213;40.528;44.712;2023-06-26T02:46:48;80415.56;;;12.65;78.16
62680;BME280;68213;40.528;44.712;2023-06-26T02:47:48;80418.44;;;12.72;78.57
62680;BME280;68213;40.528;44.712;2023-06-26T02:48:49;80417.38;;;12.77;78.57
62680;BME280;68213;40.528;44.712;2023-06-26T02:49:50;80414.31;;;12.82;77.84
62680;BME280;68213;40.528;44.712;2023-06-26T02:50:51;80414.31;;;12.82;78.44
62680;BME280;68213;40.528;44.712;2023-06-26T02:51:52;80408.72;;;12.90;77.46
62680;BME280;68213;40.528;44.712;2023-06-26T02:52:52;80419.63;;;12.98;76.94
62680;BME280;68213;40.528;44.712;2023-06-26T02:53:53;80418.50;;;13.04;77.61
62680;BME280;68213;40.528;44.712;2023-06-26T02:54:54;80415.78;;;13.01;78.45
62680;BME280;68213;40.528;44.712;2023-06-26T02:55:54;80420.66;;;13.07;78.26
62680;BME280;68213;40.528;44.712;2023-06-26T02:56:55;80422.88;;;13.13;78.24
62680;BME280;68213;40.528;44.712;2023-06-26T02:57:56;80415.81;;;13.17;74.20
62680;BME280;68213;40.528;44.712;2023-06-26T02:58:57;80416.13;;;13.26;73.57
62680;BME280;68213;40.528;44.712;2023-06-26T03:00:00;80416.56;;;13.36;73.89
62680;BME280;68213;40.528;44.712;2023-06-26T03:01:01;80412.25;;;13.43;73.11
62680;BME280;68213;40.528;44.712;2023-06-26T03:02:02;80413.19;;;13.49;73.30
62680;BME280;68213;40.528;44.712;2023-06-26T03:03:02;80411.31;;;13.52;72.29
62680;BME280;68213;40.528;44.712;2023-06-26T03:04:04;80419.56;;;13.60;71.63
62680;BME280;68213;40.528;44.712;2023-06-26T03:05:05;80415.91;;;13.68;71.90
62680;BME280;68213;40.528;44.712;2023-06-26T03:06:07;80413.50;;;13.74;72.19
62680;BME280;68213;40.528;44.712;2023-06-26T03:07:10;80415.03;;;13.79;72.53
62680;BME280;68213;40.528;44.712;2023-06-26T03:08:11;80409.75;;;13.79;72.31
62680;BME280;68213;40.528;44.712;2023-06-26T03:09:12;80411.88;;;13.83;71.58
62680;BME280;68213;40.528;44.712;2023-06-26T03:10:12;80414.00;;;13.86;70.87
62680;BME280;68213;40.528;44.712;2023-06-26T03:11:13;80411.09;;;13.96;71.28
62680;BME280;68213;40.528;44.712;2023-06-26T03:12:14;80409.38;;;14.03;71.20
62680;BME280;68213;40.528;44.712;2023-06-26T03:13:15;80412.97;;;13.93;73.35
62680;BME280;68213;40.528;44.712;2023-06-26T03:14:15;80412.22;;;13.91;73.44
62680;BME280;68213;40.528;44.712;2023-06-26T03:15:16;80413.22;;;14.00;73.35
62680;BME280;68213;40.528;44.712;2023-06-26T03:16:17;80416.47;;;13.98;72.95
62680;BME280;68213;40.528;44.712;2023-06-26T03:17:18;80413.38;;;14.04;74.82
62680;BME280;68213;40.528;44.712;2023-06-26T03:18:19;80410.91;;;14.08;71.59
62680;BME280;68213;40.528;44.712;2023-06-26T03:19:19;80405.59;;;14.08;71.14
62680;BME280;68213;40.528;44.712;2023-06-26T03:20:20;80406.97;;;14.09;71.37
62680;BME280;68213;40.528;44.712;2023-06-26T03:21:21;80411.75;;;14.12;71.12
62680;BME280;68213;40.528;44.712;2023-06-26T03:22:21;80413.56;;;14.26;70.46
62680;BME280;68213;40.528;44.712;2023-06-26T03:23:25;80408.97;;;14.26;69.61
62680;BME280;68213;40.528;44.712;2023-06-26T03:24:26;80415.59;;;14.27;69.37
62680;BME280;68213;40.528;44.712;2023-06-26T03:25:26;80410.56;;;14.34;69.25
62680;BME280;68213;40.528;44.712;2023-06-26T03:26:27;80407.38;;;14.37;68.77
62680;BME280;68213;40.528;44.712;2023-06-26T03:27:28;80408.91;;;14.42;68.16
62680;BME280;68213;40.528;44.712;2023-06-26T03:28:29;80410.44;;;14.48;68.24
62680;BME280;68213;40.528;44.712;2023-06-26T03:29:33;80409.47;;;14.57;68.71
62680;BME280;68213;40.528;44.712;2023-06-26T03:30:34;80408.94;;;14.60;69.97
62680;BME280;68213;40.528;44.712;2023-06-26T03:31:35;80411.06;;;14.64;69.17
62680;BME280;68213;40.528;44.712;2023-06-26T03:32:35;80407.22;;;14.67;68.59
62680;BME280;68213;40.528;44.712;2023-06-26T03:33:37;80412.13;;;14.75;68.14
62680;BME280;68213;40.528;44.712;2023-06-26T03:34:38;80412.97;;;14.80;67.71
62680;BME280;68213;40.528;44.712;2023-06-26T03:35:39;80411.22;;;14.68;68.30
62680;BME280;68213;40.528;44.712;2023-06-26T03:36:39;80413.41;;;14.74;68.42
62680;BME280;68213;40.528;44.712;2023-06-26T03:37:40;80404.97;;;14.78;68.19
62680;BME280;68213;40.528;44.712;2023-06-26T03:38:41;80402.97;;;14.78;68.07
62680;BME280;68213;40.528;44.712;2023-06-26T03:39:41;80385.47;;;14.69;68.25
62680;BME280;68213;40.528;44.712;2023-06-26T03:40:42;80399.13;;;14.81;67.84
62680;BME280;68213;40.528;44.712;2023-06-26T03:41:43;80408.03;;;14.90;67.26
62680;BME280;68213;40.528;44.712;2023-06-26T03:42:44;80402.00;;;14.87;67.21
62680;BME280;68213;40.528;44.712;2023-06-26T03:43:47;80408.88;;;14.95;67.59
62680;BME280;68213;40.528;44.712;2023-06-26T03:44:48;80408.50;;;15.02;67.82
62680;BME280;68213;40.528;44.712;2023-06-26T03:45:48;80410.16;;;15.12;67.28
62680;BME280;68213;40.528;44.712;2023-06-26T03:46:49;80405.69;;;15.16;67.56
62680;BME280;68213;40.528;44.712;2023-06-26T03:47:50;80406.31;;;14.97;68.46
62680;BME280;68213;40.528;44.712;2023-06-26T03:48:50;80407.81;;;15.02;68.78
62680;BME280;68213;40.528;44.712;2023-06-26T03:49:51;80405.53;;;15.12;68.54
62680;BME280;68213;40.528;44.712;2023-06-26T03:50:52;80402.97;;;15.14;67.73
62680;BME280;68213;40.528;44.712;2023-06-26T03:51:55;80405.34;;;15.06;67.29
62680;BME280;68213;40.528;44.712;2023-06-26T03:52:56;80399.72;;;15.16;67.05
62680;BME280;68213;40.528;44.712;2023-06-26T03:53:56;80400.84;;;15.29;66.93
62680;BME280;68213;40.528;44.712;2023-06-26T03:54:58;80382.75;;;15.23;66.57
62680;BME280;68213;40.528;44.712;2023-06-26T03:55:59;80388.88;;;15.28;66.35
62680;BME280;68213;40.528;44.712;2023-06-26T03:56:59;80408.59;;;15.43;65.43
62680;BME280;68213;40.528;44.712;2023-06-26T03:58:00;80403.28;;;15.43;65.70
62680;BME280;68213;40.528;44.712;2023-06-26T03:59:01;80409.88;;;15.42;65.82
62680;BME280;68213;40.528;44.712;2023-06-26T04:00:02;80407.84;;;15.40;66.44
62680;BME280;68213;40.528;44.712;2023-06-26T04:01:08;80406.09;;;15.47;66.05
62680;BME280;68213;40.528;44.712;2023-06-26T04:02:09;80404.41;;;15.55;65.42
62680;BME280;68213;40.528;44.712;2023-06-26T04:03:09;80401.00;;;15.53;65.88
62680;BME280;68213;40.528;44.712;2023-06-26T04:04:11;80403.19;;;15.59;65.71
62680;BME280;68213;40.528;44.712;2023-06-26T04:05:12;80399.25;;;15.60;66.05
62680;BME280;68213;40.528;44.712;2023-06-26T04:06:13;80398.97;;;15.51;66.70
62680;BME280;68213;40.528;44.712;2023-06-26T04:07:13;80401.63;;;15.51;65.77
62680;BME280;68213;40.528;44.712;2023-06-26T04:08:14;80392.91;;;15.49;66.75
62680;BME280;68213;40.528;44.712;2023-06-26T04:09:15;80398.97;;;15.51;65.85
62680;BME280;68213;40.528;44.712;2023-06-26T04:10:16;80397.34;;;15.42;65.88
62680;BME280;68213;40.528;44.712;2023-06-26T04:11:16;80395.84;;;15.37;66.19
62680;BME280;68213;40.528;44.712;2023-06-26T04:12:17;80395.84;;;15.37;66.44
62680;BME280;68213;40.528;44.712;2023-06-26T04:13:18;80398.53;;;15.39;65.68
62680;BME280;68213;40.528;44.712;2023-06-26T04:14:19;80399.91;;;15.40;65.42
62680;BME280;68213;40.528;44.712;2023-06-26T04:15:19;80400.06;;;15.44;65.01
62680;BME280;68213;40.528;44.712;2023-06-26T04:16:21;80403.50;;;15.49;64.92
62680;BME280;68213;40.528;44.712;2023-06-26T04:17:25;80402.00;;;15.44;65.56
62680;BME280;68213;40.528;44.712;2023-06-26T04:18:26;80400.81;;;15.47;65.73
62680;BME280;68213;40.528;44.712;2023-06-26T04:19:27;80394.97;;;15.50;66.50
62680;BME280;68213;40.528;44.712;2023-06-26T04:20:28;80396.38;;;15.53;66.30
62680;BME280;68213;40.528;44.712;2023-06-26T04:21:31;80387.91;;;15.57;65.51
62680;BME280;68213;40.528;44.712;2023-06-26T04:22:32;80389.47;;;15.64;65.39
62680;BME280;68213;40.528;44.712;2023-06-26T04:23:33;80394.75;;;15.64;64.55
62680;BME280;68213;40.528;44.712;2023-06-26T04:24:34;80402.25;;;15.32;66.07
62680;BME280;68213;40.528;44.712;2023-06-26T04:25:35;80402.22;;;15.30;65.27
62680;BME280;68213;40.528;44.712;2023-06-26T04:26:38;80370.50;;;15.14;65.22
62680;BME280;68213;40.528;44.712;2023-06-26T04:27:41;80394.59;;;15.40;64.67
62680;BME280;68213;40.528;44.712;2023-06-26T04:28:42;80393.41;;;15.43;66.75
62680;BME280;68213;40.528;44.712;2023-06-26T04:29:43;80395.13;;;15.36;66.46
62680;BME280;68213;40.528;44.712;2023-06-26T04:30:44;80390.66;;;15.41;65.81
62680;BME280;68213;40.528;44.712;2023-06-26T04:31:44;80388.03;;;15.41;65.77
62680;BME280;68213;40.528;44.712;2023-06-26T04:32:48;80390.78;;;15.45;65.61
62680;BME280;68213;40.528;44.712;2023-06-26T04:33:49;80388.91;;;15.48;65.20
62680;BME280;68213;40.528;44.712;2023-06-26T04:34:55;80393.53;;;15.47;66.63
62680;BME280;68213;40.528;44.712;2023-06-26T04:35:55;80387.66;;;15.31;66.32
62680;BME280;68213;40.528;44.712;2023-06-26T04:36:56;80386.16;;;15.26;66.38
62680;BME280;68213;40.528;44.712;2023-06-26T04:37:57;80391.75;;;15.34;66.61
62680;BME280;68213;40.528;44.712;2023-06-26T04:38:58;80382.34;;;15.31;66.29
62680;BME280;68213;40.528;44.712;2023-06-26T04:39:59;80389.31;;;15.40;68.22
62680;BME280;68213;40.528;44.712;2023-06-26T04:41:01;80391.97;;;15.40;66.89
62680;BME280;68213;40.528;44.712;2023-06-26T04:42:02;80390.47;;;15.35;66.41
62680;BME280;68213;40.528;44.712;2023-06-26T04:43:03;80390.47;;;15.35;66.29
62680;BME280;68213;40.528;44.712;2023-06-26T04:44:04;80386.38;;;15.32;66.64
62680;BME280;68213;40.528;44.712;2023-06-26T04:45:05;80382.44;;;15.33;67.10
62680;BME280;68213;40.528;44.712;2023-06-26T04:46:06;80384.66;;;15.20;67.23
62680;BME280;68213;40.528;44.712;2023-06-26T04:47:07;80374.91;;;15.25;68.23
62680;BME280;68213;40.528;44.712;2023-06-26T04:48:08;80381.28;;;15.38;68.54
62680;BME280;68213;40.528;44.712;2023-06-26T04:49:09;80380.19;;;15.45;68.55
62680;BME280;68213;40.528;44.712;2023-06-26T04:50:10;80374.91;;;15.45;69.47
62680;BME280;68213;40.528;44.712;2023-06-26T04:51:11;80353.03;;;15.25;67.21
62680;BME280;68213;40.528;44.712;2023-06-26T04:52:13;80376.28;;;15.46;67.89
62680;BME280;68213;40.528;44.712;2023-06-26T04:53:13;80380.19;;;15.45;67.31
62680;BME280;68213;40.528;44.712;2023-06-26T04:54:14;80379.00;;;15.48;67.10
62680;BME280;68213;40.528;44.712;2023-06-26T04:55:15;80384.97;;;15.49;67.33
62680;BME280;68213;40.528;44.712;2023-06-26T04:56:16;80361.53;;;15.41;68.56
62680;BME280;68213;40.528;44.712;2023-06-26T04:57:16;80380.50;;;15.53;68.68
62680;BME280;68213;40.528;44.712;2023-06-26T04:58:19;80380.50;;;15.53;67.28
62680;BME280;68213;40.528;44.712;2023-06-26T04:59:19;80378.00;;;15.58;66.22
62680;BME280;68213;40.528;44.712;2023-06-26T05:00:20;80382.69;;;15.59;67.18
62680;BME280;68213;40.528;44.712;2023-06-26T05:01:21;80375.47;;;15.62;67.75
62680;BME280;68213;40.528;44.712;2023-06-26T05:02:22;80378.59;;;15.56;67.07
62680;BME280;68213;40.528;44.712;2023-06-26T05:03:22;80378.75;;;15.60;66.64
62680;BME280;68213;40.528;44.712;2023-06-26T05:04:25;80383.50;;;15.64;66.89
62680;BME280;68213;40.528;44.712;2023-06-26T05:05:29;80373.91;;;15.54;67.08
62680;BME280;68213;40.528;44.712;2023-06-26T05:06:30;80376.97;;;15.67;67.90
62680;BME280;68213;40.528;44.712;2023-06-26T05:07:31;80369.84;;;15.71;67.05
62680;BME280;68213;40.528;44.712;2023-06-26T05:08:31;80370.72;;;15.78;69.11
62680;BME280;68213;40.528;44.712;2023-06-26T05:09:32;80362.16;;;15.80;68.52
62680;BME280;68213;40.528;44.712;2023-06-26T05:10:33;80371.41;;;15.79;67.20
62680;BME280;68213;40.528;44.712;2023-06-26T05:11:36;80368.31;;;15.84;66.91
62680;BME280;68213;40.528;44.712;2023-06-26T05:12:37;80367.75;;;15.88;66.44
62680;BME280;68213;40.528;44.712;2023-06-26T05:13:38;80362.59;;;15.92;67.66
62680;BME280;68213;40.528;44.712;2023-06-26T05:14:38;80366.00;;;15.95;66.90
62680;BME280;68213;40.528;44.712;2023-06-26T05:15:42;80368.31;;;15.84;67.13
62680;BME280;68213;40.528;44.712;2023-06-26T05:16:43;80365.19;;;15.90;66.91
62680;BME280;68213;40.528;44.712;2023-06-26T05:17:43;80367.94;;;15.94;65.98
62680;BME280;68213;40.528;44.712;2023-06-26T05:18:44;80363.34;;;15.95;66.08
62680;BME280;68213;40.528;44.712;2023-06-26T05:19:45;80356.59;;;15.92;65.91
62680;BME280;68213;40.528;44.712;2023-06-26T05:20:46;80361.63;;;16.04;66.97
62680;BME280;68213;40.528;44.712;2023-06-26T05:21:47;80359.16;;;16.10;68.50
62680;BME280;68213;40.528;44.712;2023-06-26T05:22:49;80353.28;;;16.11;66.42
62680;BME280;68213;40.528;44.712;2023-06-26T05:23:51;80360.41;;;16.07;65.24
62680;BME280;68213;40.528;44.712;2023-06-26T05:24:55;80355.03;;;16.05;65.73
62680;BME280;68213;40.528;44.712;2023-06-26T05:25:56;80346.34;;;16.02;65.44